Time;durP1;ratioP1;P1;durP2;ratioP2;P2;SDS_P1;SDS_P2;PMS_P1;PMS_P2;Temp;Humidity;BMP_temperature;BMP_pressure;BME280_temperature;BME280_humidity;BME280_pressure;Samples;Min_cycle;Max_cycle;Signal;HPM_P1;HPM_P2
2023/07/18 00:01:58;;;;;;;14.00;10.80;;;;;;;14.59;100.00;101819.19;5089413;28;20441;-39
2023/07/18 00:04:27;;;;;;;10.83;10.03;;;;;;;14.58;100.00;101816.66;5088802;28;20536;-40
2023/07/18 00:06:55;;;;;;;10.90;10.00;;;;;;;14.58;100.00;101816.66;5089109;28;20425;-42
2023/07/18 00:09:23;;;;;;;10.27;9.53;;;;;;;14.55;100.00;101825.94;5088829;28;20469;-42
2023/07/18 00:11:51;;;;;;;10.13;9.27;;;;;;;14.51;100.00;101813.97;5088974;28;20868;-39
2023/07/18 00:14:19;;;;;;;13.03;10.23;;;;;;;14.53;100.00;101813.75;5088762;28;20433;-40
2023/07/18 00:16:48;;;;;;;13.47;10.60;;;;;;;14.51;100.00;101822.03;5090272;28;20428;-40
2023/07/18 00:19:15;;;;;;;15.13;11.10;;;;;;;14.49;100.00;101821.38;5088460;28;20806;-39
2023/07/18 00:21:43;;;;;;;11.10;10.20;;;;;;;14.45;100.00;101820.13;5088803;28;20949;-40
2023/07/18 00:24:11;;;;;;;9.80;9.30;;;;;;;14.45;100.00;101817.44;5088859;28;20425;-41
2023/07/18 00:26:39;;;;;;;11.70;10.60;;;;;;;14.44;100.00;101821.13;5089469;28;20476;-40
2023/07/18 00:29:07;;;;;;;15.33;10.90;;;;;;;14.40;100.00;101815.31;5088431;28;20469;-40
2023/07/18 00:31:34;;;;;;;12.20;11.03;;;;;;;14.37;100.00;101807.66;5089480;28;20479;-41
2023/07/18 00:34:04;;;;;;;12.03;10.60;;;;;;;14.33;100.00;101819.84;5088601;28;20433;-40
2023/07/18 00:36:32;;;;;;;13.03;11.73;;;;;;;14.31;100.00;101813.78;5088994;28;20524;-40
2023/07/18 00:39:00;;;;;;;11.83;10.93;;;;;;;14.32;100.00;101811.94;5088343;28;20528;-40
2023/07/18 00:41:27;;;;;;;13.70;11.07;;;;;;;14.27;100.00;101817.91;5088569;28;20911;-40
2023/07/18 00:43:55;;;;;;;11.70;10.47;;;;;;;14.28;100.00;101814.16;5088558;28;20536;-41
2023/07/18 00:46:23;;;;;;;11.00;10.30;;;;;;;14.25;100.00;101811.03;5089054;28;21086;-40
2023/07/18 00:48:51;;;;;;;12.33;11.03;;;;;;;14.24;100.00;101814.75;5088122;28;20425;-40
2023/07/18 00:51:21;;;;;;;12.00;11.20;;;;;;;14.22;100.00;101814.09;5088460;28;20752;-40
2023/07/18 00:53:49;;;;;;;13.27;11.93;;;;;;;14.18;100.00;101812.84;5088854;28;20791;-40
2023/07/18 00:56:16;;;;;;;14.07;12.07;;;;;;;14.17;100.00;101812.03;5088761;28;20426;-42
2023/07/18 00:58:44;;;;;;;13.60;11.60;;;;;;;14.15;100.00;101813.25;5088523;28;20532;-40
2023/07/18 01:01:12;;;;;;;11.70;10.77;;;;;;;14.14;100.00;101812.41;5088959;28;20445;-40
2023/07/18 01:03:40;;;;;;;13.30;10.90;;;;;;;14.12;100.00;101819.00;5091788;28;20493;-40
2023/07/18 01:06:09;;;;;;;12.43;11.23;;;;;;;14.09;100.00;101812.16;5092409;28;20960;-41
2023/07/18 01:08:39;;;;;;;12.17;10.97;;;;;;;14.09;100.00;101812.16;5092224;28;20429;-40
2023/07/18 01:11:07;;;;;;;13.07;11.97;;;;;;;14.10;100.00;101815.66;5092358;28;20440;-40
2023/07/18 01:13:36;;;;;;;12.23;11.10;;;;;;;14.09;100.00;101817.53;5092172;28;20506;-41
2023/07/18 01:16:04;;;;;;;12.10;10.87;;;;;;;14.07;100.00;101811.50;5093189;28;20816;-40
2023/07/18 01:18:31;;;;;;;10.63;9.93;;;;;;;14.07;100.00;101822.25;5092725;28;20437;-39
2023/07/18 01:21:01;;;;;;;11.97;10.87;;;;;;;14.08;100.00;101826.59;5092343;28;20445;-41
2023/07/18 01:23:31;;;;;;;12.37;11.50;;;;;;;14.06;100.00;101820.59;5092207;28;20445;-40
2023/07/18 01:25:58;;;;;;;12.47;11.20;;;;;;;14.07;100.00;101816.03;5092338;28;20556;-40
2023/07/18 01:28:26;;;;;;;12.63;11.63;;;;;;;14.08;100.00;101815.03;5092635;28;21012;-41
2023/07/18 01:30:54;;;;;;;14.80;11.20;;;;;;;14.07;100.00;101811.50;5092337;28;20465;-41
2023/07/18 01:33:22;;;;;;;14.73;12.30;;;;;;;14.08;100.00;101805.13;5092725;28;20434;-42
2023/07/18 01:35:51;;;;;;;11.47;10.40;;;;;;;14.12;100.00;101810.94;5092700;28;20425;-41
2023/07/18 01:38:19;;;;;;;11.93;10.73;;;;;;;14.10;100.00;101802.25;5092258;28;20508;-41
2023/07/18 01:40:48;;;;;;;12.80;11.53;;;;;;;14.10;100.00;101804.94;5091720;28;20483;-39
2023/07/18 01:43:16;;;;;;;12.20;11.17;;;;;;;14.08;100.00;101802.44;5092105;28;20451;-40
2023/07/18 01:45:43;;;;;;;13.30;12.00;;;;;;;14.07;100.00;101803.47;5092143;28;20897;-41
2023/07/18 01:48:11;;;;;;;12.13;11.30;;;;;;;14.05;100.00;101797.47;5092749;28;20429;-41
2023/07/18 01:50:39;;;;;;;13.43;12.43;;;;;;;14.04;100.00;101790.44;5091465;28;20469;-40
2023/07/18 01:53:07;;;;;;;12.27;11.30;;;;;;;14.05;100.00;101794.78;5091849;28;20882;-42
2023/07/18 01:55:34;;;;;;;12.47;11.47;;;;;;;14.04;100.00;101805.69;5091817;28;20996;-40
2023/07/18 01:58:03;;;;;;;13.57;11.30;;;;;;;14.04;100.00;101811.06;5091943;28;20773;-41
2023/07/18 02:00:32;;;;;;;13.40;12.30;;;;;;;14.02;100.00;101802.41;5091230;28;20522;-41
2023/07/18 02:03:00;;;;;;;12.47;11.27;;;;;;;13.99;100.00;101802.78;5092024;28;20488;-43
2023/07/18 02:05:30;;;;;;;16.70;11.90;;;;;;;13.97;100.00;101804.84;5091611;28;20434;-40
2023/07/18 02:07:58;;;;;;;12.00;11.27;;;;;;;13.95;100.00;101814.94;5091332;28;20484;-40
2023/07/18 02:10:27;;;;;;;12.03;11.10;;;;;;;13.93;100.00;101811.59;5091182;28;20761;-40
2023/07/18 02:12:57;;;;;;;11.93;10.93;;;;;;;13.91;100.00;101817.16;5090964;28;20883;-40
2023/07/18 02:15:26;;;;;;;12.70;11.20;;;;;;;13.90;100.00;101817.34;5091894;28;20741;-40
2023/07/18 02:17:54;;;;;;;12.83;11.67;;;;;;;13.86;100.00;101817.72;5092008;28;20425;-40
2023/07/18 02:20:22;;;;;;;12.60;11.70;;;;;;;13.82;100.00;101811.09;5090836;28;20854;-42
2023/07/18 02:22:50;;;;;;;12.00;11.30;;;;;;;13.83;100.00;101819.94;5091627;28;20518;-41
2023/07/18 02:25:18;;;;;;;11.93;11.03;;;;;;;13.80;100.00;101813.13;5091597;28;20486;-41
2023/07/18 02:27:46;;;;;;;12.57;11.77;;;;;;;13.76;100.00;101817.22;5091787;28;20473;-40
2023/07/18 02:30:15;;;;;;;11.60;10.90;;;;;;;13.74;100.00;101821.09;5091110;28;20457;-40
2023/07/18 02:32:44;;;;;;;13.40;12.13;;;;;;;13.71;100.00;101824.16;5091831;28;20441;-43
2023/07/18 02:35:17;;;;;;;12.50;11.53;;;;;;;13.70;100.00;101815.31;5091259;28;20433;-42
2023/07/18 02:37:45;;;;;;;12.20;11.10;;;;;;;13.73;100.00;101822.13;5091276;28;20912;-41
2023/07/18 02:40:15;;;;;;;12.63;11.80;;;;;;;13.72;100.00;101821.31;5090968;28;20473;-40
2023/07/18 02:42:43;;;;;;;11.90;11.23;;;;;;;13.74;100.00;101818.41;5091320;28;20856;-43
2023/07/18 02:45:11;;;;;;;14.23;11.73;;;;;;;13.75;100.00;101814.72;5091731;28;20430;-39
2023/07/18 02:47:39;;;;;;;12.20;11.23;;;;;;;13.73;100.00;101817.63;5091971;28;20526;-39
2023/07/18 02:50:09;;;;;;;13.13;12.13;;;;;;;13.73;100.00;101822.13;5091090;28;20457;-40
2023/07/18 02:52:37;;;;;;;12.23;11.27;;;;;;;13.74;100.00;101819.25;5091412;28;20822;-40
2023/07/18 02:55:06;;;;;;;12.77;11.83;;;;;;;13.77;100.00;101813.50;5091440;28;20429;-41
2023/07/18 02:57:35;;;;;;;13.40;12.10;;;;;;;13.80;100.00;101813.13;5091167;28;20461;-40
2023/07/18 03:00:06;;;;;;;12.80;11.97;;;;;;;13.82;100.00;101807.59;5090816;28;20457;-41
2023/07/18 03:02:34;;;;;;;12.40;11.30;;;;;;;13.80;100.00;101818.50;5091630;28;20480;-40
2023/07/18 03:05:02;;;;;;;12.07;11.10;;;;;;;13.80;100.00;101815.81;5091541;28;20797;-39
2023/07/18 03:07:31;;;;;;;12.00;11.30;;;;;;;13.79;100.00;101819.53;5091229;28;20820;-43
2023/07/18 03:09:58;;;;;;;11.53;10.83;;;;;;;13.79;100.00;101813.34;5090148;28;20489;-43
2023/07/18 03:12:26;;;;;;;11.80;11.10;;;;;;;13.78;100.00;101815.19;5090302;28;20541;-43
2023/07/18 03:14:54;;;;;;;12.47;11.40;;;;;;;13.76;100.00;101813.72;5091013;28;20444;-42
2023/07/18 03:17:23;;;;;;;11.83;10.93;;;;;;;13.74;100.00;101816.56;5091545;28;20430;-42
2023/07/18 03:19:50;;;;;;;12.43;11.17;;;;;;;13.76;100.00;101811.03;5092382;28;20487;-39
2023/07/18 03:22:18;;;;;;;12.57;11.40;;;;;;;13.72;100.00;101815.94;5101875;28;20870;-45
2023/07/18 03:24:47;;;;;;;12.60;11.33;;;;;;;13.75;100.00;101810.19;5102576;28;20486;-40
2023/07/18 03:27:15;;;;;;;11.80;11.10;;;;;;;13.77;100.00;101812.66;5102276;28;20602;-40
2023/07/18 03:29:43;;;;;;;12.93;11.90;;;;;;;13.76;100.00;101811.03;5102018;28;20939;-40
2023/07/18 03:32:11;;;;;;;11.70;10.80;;;;;;;13.76;100.00;101811.88;5102615;28;21017;-40
2023/07/18 03:34:39;;;;;;;11.80;11.00;;;;;;;13.79;100.00;101816.00;5101948;28;20430;-40
2023/07/18 03:37:09;;;;;;;10.87;10.10;;;;;;;13.81;100.00;101816.66;5102022;28;20512;-41
2023/07/18 03:39:36;;;;;;;17.73;11.40;;;;;;;13.85;100.00;101804.53;5101192;28;20477;-42
2023/07/18 03:42:06;;;;;;;12.80;11.80;;;;;;;13.89;100.00;101808.47;5101682;28;20453;-42
2023/07/18 03:44:34;;;;;;;12.40;11.43;;;;;;;13.90;100.00;101806.63;5101953;28;20494;-39
2023/07/18 03:47:00;;;;;;;11.93;10.93;;;;;;;13.99;100.00;101802.78;5102697;28;20469;-39
2023/07/18 03:49:47;;;;;;;10.90;10.10;;;;;;;14.04;100.00;101806.53;5101709;28;20491;-40
2023/07/18 03:52:15;;;;;;;11.17;10.40;;;;;;;14.11;100.00;101804.75;5101681;28;20445;-40
2023/07/18 03:54:43;;;;;;;11.77;11.00;;;;;;;14.21;100.00;101810.63;5102243;28;20430;-41
2023/07/18 03:57:12;;;;;;;12.53;11.50;;;;;;;14.26;100.00;101810.03;5101782;28;20490;-42
2023/07/18 03:59:40;;;;;;;11.67;10.97;;;;;;;14.36;100.00;101807.88;5101386;28;20453;-41
2023/07/18 04:02:07;;;;;;;10.97;10.30;;;;;;;14.44;100.00;101807.72;5102583;28;20484;-40
2023/07/18 04:04:35;;;;;;;10.70;9.90;;;;;;;14.54;100.00;101802.00;5102266;28;20504;-41
2023/07/18 04:07:03;;;;;;;11.60;10.80;;;;;;;14.65;100.00;101801.44;5101288;28;20515;-40
2023/07/18 04:09:32;;;;;;;11.70;10.80;;;;;;;14.79;100.00;101804.00;5101767;28;20477;-44
2023/07/18 04:12:00;;;;;;;12.13;10.93;;;;;;;14.89;100.00;101800.97;5102214;28;20505;-40
2023/07/18 04:14:29;;;;;;;12.73;11.87;;;;;;;15.02;100.00;101802.91;5101998;28;20457;-40
2023/07/18 04:16:56;;;;;;;11.60;10.77;;;;;;;15.13;100.00;101805.00;5102909;28;20476;-40
2023/07/18 04:19:24;;;;;;;11.93;10.93;;;;;;;15.24;100.00;101807.94;5101143;28;20454;-42
2023/07/18 04:21:52;;;;;;;12.67;11.90;;;;;;;15.40;100.00;101802.22;5101104;28;20433;-43
2023/07/18 04:24:20;;;;;;;12.37;11.50;;;;;;;15.50;100.00;101796.47;5102660;28;20432;-42
2023/07/18 04:26:48;;;;;;;13.27;11.57;;;;;;;15.73;100.00;101798.78;5101408;28;20448;-43
2023/07/18 04:29:16;;;;;;;11.67;10.93;;;;;;;15.98;100.00;101802.53;5099829;28;20457;-46
2023/07/18 04:31:45;;;;;;;11.70;11.00;;;;;;;16.52;100.00;101802.28;5102127;28;20463;-40
2023/07/18 04:34:15;;;;;;;12.10;11.30;;;;;;;17.62;100.00;101799.44;5101318;28;20465;-40
2023/07/18 04:36:43;;;;;;;12.53;11.83;;;;;;;18.27;100.00;101795.41;5101068;28;20551;-45
2023/07/18 04:39:10;;;;;;;12.43;11.83;;;;;;;19.35;100.00;101797.28;5100683;28;20480;-40
2023/07/18 04:41:38;;;;;;;12.80;11.93;;;;;;;20.16;100.00;101790.50;5100966;28;20516;-40
2023/07/18 04:44:21;;;;;;;12.53;11.57;;;;;;;20.87;100.00;101777.50;5100883;28;20425;-43
2023/07/18 04:46:52;;;;;;;12.00;11.20;;;;;;;21.49;100.00;101767.63;5101906;28;20482;-40
2023/07/18 04:49:22;;;;;;;11.70;10.97;;;;;;;21.39;100.00;101766.59;5100397;28;20467;-44
2023/07/18 04:51:51;;;;;;;11.40;10.40;;;;;;;22.08;100.00;101778.16;5100842;28;20428;-41
2023/07/18 04:54:19;;;;;;;11.93;11.20;;;;;;;23.04;100.00;101772.19;5100924;28;20433;-41
2023/07/18 04:56:47;;;;;;;11.97;11.07;;;;;;;23.84;100.00;101765.94;5101514;28;20424;-42
2023/07/18 04:59:15;;;;;;;12.60;11.40;;;;;;;24.37;100.00;101768.53;5100277;28;20512;-41
2023/07/18 05:01:42;;;;;;;9.93;9.23;;;;;;;24.69;100.00;101777.47;5101402;28;20478;-42
2023/07/18 05:04:11;;;;;;;10.30;9.60;;;;;;;25.01;100.00;101773.78;5101106;28;20558;-44
2023/07/18 05:06:39;;;;;;;9.13;8.43;;;;;;;25.36;96.72;101778.56;5101911;28;20433;-41
2023/07/18 05:09:08;;;;;;;8.57;7.90;;;;;;;25.69;85.45;101767.13;5058833;28;20520;-41
2023/07/18 05:11:35;;;;;;;8.27;7.47;;;;;;;26.20;86.76;101776.19;5040771;28;20427;-44
2023/07/18 05:14:03;;;;;;;10.33;7.00;;;;;;;26.72;85.02;101768.41;5039932;28;20470;-40
2023/07/18 05:16:31;;;;;;;6.30;5.80;;;;;;;27.34;86.51;101767.84;5041101;28;20431;-46
2023/07/18 05:18:59;;;;;;;7.20;5.77;;;;;;;27.70;72.68;101778.56;5040273;28;20535;-44
2023/07/18 05:21:28;;;;;;;6.43;5.93;;;;;;;27.92;65.96;101777.03;5040999;28;20434;-42
2023/07/18 05:23:56;;;;;;;5.80;5.20;;;;;;;28.09;70.55;101781.28;5040877;28;20463;-44
2023/07/18 05:26:24;;;;;;;6.23;5.83;;;;;;;28.01;65.20;101777.25;5040418;28;20427;-43
2023/07/18 05:28:52;;;;;;;5.53;5.13;;;;;;;28.54;65.72;101780.84;5039389;28;20989;-44
2023/07/18 05:31:20;;;;;;;6.83;5.40;;;;;;;28.88;59.89;101778.00;5040932;28;20430;-43
2023/07/18 05:33:48;;;;;;;5.50;5.10;;;;;;;29.44;61.89;101773.41;5039759;28;20799;-45
2023/07/18 05:36:17;;;;;;;5.40;4.93;;;;;;;29.88;57.48;101780.41;5040333;28;20200;-44
2023/07/18 05:38:46;;;;;;;5.73;5.30;;;;;;;30.08;60.72;101777.31;5041300;28;20248;-44
2023/07/18 05:41:14;;;;;;;7.47;5.20;;;;;;;30.40;58.54;101776.50;5039820;28;20224;-44
2023/07/18 05:43:42;;;;;;;5.20;4.70;;;;;;;30.71;54.13;101769.25;5040066;28;20213;-41
2023/07/18 05:46:11;;;;;;;5.40;4.90;;;;;;;30.86;52.58;101779.13;5040391;28;20197;-41
2023/07/18 05:48:38;;;;;;;4.90;4.50;;;;;;;30.91;55.03;101782.63;5041129;28;20213;-42
2023/07/18 05:51:06;;;;;;;4.27;3.93;;;;;;;31.31;52.89;101774.56;5042952;28;20200;-42
2023/07/18 05:53:34;;;;;;;6.00;4.20;;;;;;;31.27;47.02;101775.19;5059975;28;20239;-44
2023/07/18 05:56:04;;;;;;;4.97;4.47;;;;;;;31.69;48.73;101784.19;5062463;28;20267;-43
2023/07/18 05:58:32;;;;;;;3.80;3.60;;;;;;;31.99;47.06;101780.66;5055345;28;20227;-44
2023/07/18 06:00:59;;;;;;;9.48;4.38;;;;;;;32.05;48.55;101784.94;5043595;28;20217;-41
2023/07/18 06:03:28;;;;;;;4.80;4.40;;;;;;;32.18;48.24;101786.81;5043588;28;20216;-41
2023/07/18 06:05:56;;;;;;;5.88;4.32;;;;;;;32.04;45.31;101777.00;5043336;28;20197;-43
2023/07/18 06:08:24;;;;;;;6.40;4.30;;;;;;;32.30;44.17;101784.28;5042894;28;20240;-45
2023/07/18 06:10:56;;;;;;;4.80;4.40;;;;;;;32.25;44.35;101783.59;5042671;28;20229;-43
2023/07/18 06:13:26;;;;;;;8.00;5.78;;;;;;;32.31;44.23;101785.91;5043157;28;20224;-43
2023/07/18 06:15:54;;;;;;;4.60;4.15;;;;;;;32.60;41.66;101779.88;5044956;28;20232;-44
2023/07/18 06:18:21;;;;;;;4.88;3.70;;;;;;;32.08;46.24;101784.31;5043513;28;20197;-46
2023/07/18 06:20:49;;;;;;;76.97;70.18;;;;;;;31.66;43.79;101788.38;5043172;28;20244;-44
2023/07/18 06:23:17;;;;;;;10.00;9.00;;;;;;;31.19;42.41;101781.47;5043775;28;20217;-42
2023/07/18 06:25:45;;;;;;;7.43;4.57;;;;;;;31.24;42.65;101786.84;5043331;28;20190;-42
2023/07/18 06:28:13;;;;;;;4.88;4.05;;;;;;;31.41;44.69;101782.63;5043626;28;20308;-41
2023/07/18 06:30:42;;;;;;;6.90;3.38;;;;;;;30.70;46.37;101792.41;5043546;28;20626;-41
2023/07/18 06:33:10;;;;;;;4.53;3.60;;;;;;;30.95;46.54;101780.06;5043910;28;20251;-43
2023/07/18 06:35:38;;;;;;;5.07;3.93;;;;;;;30.69;43.51;101790.78;5043981;28;20264;-46
2023/07/18 06:38:06;;;;;;;4.83;3.83;;;;;;;29.87;45.88;101787.06;5044076;28;20570;-44
2023/07/18 06:40:33;;;;;;;4.70;4.17;;;;;;;29.80;48.20;101792.06;5043284;28;20300;-43
2023/07/18 06:43:01;;;;;;;4.17;3.77;;;;;;;29.79;49.08;101790.44;5043632;28;20221;-43
2023/07/18 06:45:29;;;;;;;5.40;3.67;;;;;;;30.27;48.70;101791.81;5044244;28;20243;-43
2023/07/18 06:47:58;;;;;;;4.40;4.00;;;;;;;30.53;46.49;101782.00;5043311;28;20291;-44
2023/07/18 06:50:26;;;;;;;4.60;3.23;;;;;;;31.07;47.44;101781.19;5043729;28;20229;-42
2023/07/18 06:52:54;;;;;;;4.63;3.33;;;;;;;30.51;47.93;101787.00;5043364;28;20221;-41
2023/07/18 06:55:22;;;;;;;5.53;3.90;;;;;;;30.47;46.11;101787.91;5043532;28;20631;-43
2023/07/18 06:57:49;;;;;;;6.97;4.00;;;;;;;31.03;47.02;101774.63;5044381;28;20224;-41
2023/07/18 07:00:19;;;;;;;4.63;4.17;;;;;;;30.91;46.26;101785.38;5043264;28;20235;-41
2023/07/18 07:02:47;;;;;;;8.13;3.50;;;;;;;30.89;44.07;101784.84;5040684;28;20223;-43
2023/07/18 07:05:16;;;;;;;3.43;3.23;;;;;;;31.29;45.27;101776.84;5040296;28;20292;-46
2023/07/18 07:07:45;;;;;;;4.70;4.13;;;;;;;31.18;45.82;101771.53;5039758;28;20216;-45
2023/07/18 07:10:13;;;;;;;4.37;3.87;;;;;;;31.06;44.71;101776.78;5052434;28;20232;-46
2023/07/18 07:12:41;;;;;;;6.00;4.20;;;;;;;31.02;43.36;101764.75;5059104;28;20223;-45
2023/07/18 07:15:11;;;;;;;4.22;3.75;;;;;;;30.84;45.35;101773.94;5059489;28;20247;-41
2023/07/18 07:17:39;;;;;;;3.85;3.47;;;;;;;31.03;44.36;101773.84;5060203;28;20196;-45
2023/07/18 07:20:12;;;;;;;4.43;3.90;;;;;;;31.44;44.08;101765.47;5059010;28;20254;-43
2023/07/18 07:22:43;;;;;;;5.20;3.43;;;;;;;31.71;43.95;101771.72;5059242;28;20224;-45
2023/07/18 07:25:13;;;;;;;3.57;3.03;;;;;;;31.85;42.21;101774.41;5059047;28;20222;-45
2023/07/18 07:27:44;;;;;;;6.22;3.95;;;;;;;31.60;42.82;101775.03;5058759;28;20196;-44
2023/07/18 07:30:15;;;;;;;4.43;3.63;;;;;;;31.96;43.26;101774.97;5057899;28;20232;-43
2023/07/18 07:32:43;;;;;;;4.30;3.90;;;;;;;31.79;42.02;101772.91;5058153;28;20216;-45
2023/07/18 07:35:11;;;;;;;5.20;3.72;;;;;;;30.40;42.18;101771.81;5058692;28;20219;-42
2023/07/18 07:37:41;;;;;;;4.33;3.37;;;;;;;29.95;43.64;101778.94;5059218;28;20242;-43
2023/07/18 07:40:11;;;;;;;3.50;3.30;;;;;;;30.31;43.87;101773.59;5044665;28;20229;-46
2023/07/18 07:42:39;;;;;;;4.03;3.20;;;;;;;30.31;43.87;101772.78;5038280;28;20280;-45
2023/07/18 07:45:08;;;;;;;3.60;3.40;;;;;;;30.48;43.85;101776.59;5038884;28;20255;-43
2023/07/18 07:47:37;;;;;;;4.10;3.47;;;;;;;30.65;44.78;101770.47;5039585;28;20201;-43
2023/07/18 07:50:06;;;;;;;3.97;3.67;;;;;;;30.54;41.23;101769.88;5040983;28;20229;-42
2023/07/18 07:52:34;;;;;;;4.03;2.95;;;;;;;30.61;41.85;101770.28;5049484;28;20262;-39
2023/07/18 07:55:03;;;;;;;3.10;2.90;;;;;;;30.51;42.06;101775.16;5060925;28;20218;-41
2023/07/18 07:57:31;;;;;;;2.70;2.50;;;;;;;30.63;41.31;101768.03;5060872;28;20272;-42
2023/07/18 07:59:59;;;;;;;2.90;2.70;;;;;;;30.41;39.61;101778.94;5058696;28;20516;-44
2023/07/18 08:02:26;;;;;;;3.03;2.83;;;;;;;30.35;40.83;101779.28;5060095;28;20296;-44
2023/07/18 08:04:55;;;;;;;2.63;2.42;;;;;;;30.30;41.50;101779.41;5058076;28;20232;-42
2023/07/18 08:07:23;;;;;;;3.23;2.87;;;;;;;29.78;40.64;101775.88;5056702;28;20204;-43
2023/07/18 08:09:50;;;;;;;2.87;2.67;;;;;;;29.89;41.59;101776.56;5056652;28;20227;-44
2023/07/18 08:12:20;;;;;;;4.23;3.00;;;;;;;29.01;41.53;101777.25;5055774;28;20266;-41
2023/07/18 08:14:49;;;;;;;2.97;2.83;;;;;;;28.53;42.78;101779.19;5055194;28;20211;-42
2023/07/18 08:17:17;;;;;;;5.10;3.10;;;;;;;28.26;44.18;101773.44;5056117;28;20220;-44
2023/07/18 08:19:45;;;;;;;3.73;2.80;;;;;;;27.39;44.93;101778.75;5055486;28;20307;-42
2023/07/18 08:22:14;;;;;;;3.23;2.87;;;;;;;26.72;48.58;101782.09;5056871;28;20457;-43
2023/07/18 08:24:41;;;;;;;3.63;3.33;;;;;;;26.19;50.34;101785.50;5056182;28;20447;-41
2023/07/18 08:27:09;;;;;;;5.13;3.60;;;;;;;26.37;50.02;101782.19;5056053;28;20430;-40
2023/07/18 08:29:41;;;;;;;3.20;3.00;;;;;;;25.53;52.10;101788.19;5056372;28;20478;-41
2023/07/18 08:32:09;;;;;;;3.20;3.00;;;;;;;25.30;51.20;101783.16;5056305;28;20470;-41
2023/07/18 08:34:37;;;;;;;7.50;3.20;;;;;;;24.54;56.96;101782.00;5055778;28;21183;-40
2023/07/18 08:37:08;;;;;;;5.00;3.17;;;;;;;23.29;69.43;101782.53;5057499;28;20458;-40
2023/07/18 08:39:36;;;;;;;3.53;3.33;;;;;;;22.55;78.58;101777.50;5055864;28;21200;-41
2023/07/18 08:42:06;;;;;;;3.63;3.33;;;;;;;22.39;85.21;101775.66;5057135;28;20449;-41
2023/07/18 08:44:35;;;;;;;5.17;3.17;;;;;;;22.82;85.04;101780.34;5057035;28;20431;-41
2023/07/18 08:47:06;;;;;;;3.70;3.40;;;;;;;23.22;83.28;101768.31;5057574;28;20427;-42
2023/07/18 08:49:35;;;;;;;4.20;3.90;;;;;;;23.48;81.01;101778.41;5056595;28;20960;-41
2023/07/18 08:52:04;;;;;;;4.93;3.47;;;;;;;23.64;78.15;101766.59;5055488;28;20461;-42
2023/07/18 08:54:34;;;;;;;6.67;3.43;;;;;;;23.86;75.16;101767.34;5058525;28;20430;-43
2023/07/18 08:57:03;;;;;;;4.30;3.47;;;;;;;23.92;74.33;101760.03;5057431;28;20435;-41
2023/07/18 08:59:31;;;;;;;3.10;2.90;;;;;;;24.05;73.29;101762.28;5056867;28;21020;-46
2023/07/18 09:01:59;;;;;;;4.80;3.60;;;;;;;24.56;70.04;101747.94;5058344;28;20483;-41
2023/07/18 09:04:28;;;;;;;4.03;3.37;;;;;;;24.75;68.13;101761.94;5057845;28;20453;-41
2023/07/18 09:06:58;;;;;;;3.70;3.40;;;;;;;24.57;67.19;101751.50;5058352;28;20531;-41
2023/07/18 09:09:26;;;;;;;4.43;3.40;;;;;;;24.47;61.83;101760.44;5057342;28;20462;-42
2023/07/18 09:11:56;;;;;;;3.47;3.17;;;;;;;24.60;60.03;101756.41;5057906;28;20517;-41
2023/07/18 09:14:29;;;;;;;3.17;2.87;;;;;;;24.52;58.74;101762.38;5058081;28;20415;-43
2023/07/18 09:16:59;;;;;;;3.27;2.73;;;;;;;24.01;60.38;101755.75;5058145;28;20434;-41
2023/07/18 09:19:39;;;;;;;3.50;3.27;;;;;;;24.41;64.19;101758.75;5057217;28;20523;-41
2023/07/18 09:22:08;;;;;;;4.53;3.50;;;;;;;24.71;60.87;101749.91;5051803;28;21043;-41
2023/07/18 09:24:37;;;;;;;3.70;3.00;;;;;;;24.72;59.38;101748.84;5050828;28;20484;-43
2023/07/18 09:27:06;;;;;;;4.27;3.90;;;;;;;24.43;60.73;101748.41;5051821;28;20967;-40
2023/07/18 09:29:35;;;;;;;4.15;3.70;;;;;;;24.15;62.42;101748.78;5051380;28;20463;-40
2023/07/18 09:32:03;;;;;;;3.97;3.77;;;;;;;23.69;63.05;101762.00;5052289;28;20454;-41
2023/07/18 09:34:31;;;;;;;3.00;2.80;;;;;;;23.92;62.44;101752.69;5051855;28;20832;-42
2023/07/18 09:37:03;;;;;;;3.60;3.30;;;;;;;24.45;65.79;101756.31;5052376;28;20769;-40
2023/07/18 09:39:31;;;;;;;4.23;3.93;;;;;;;24.91;62.98;101760.13;5051459;28;20463;-42
2023/07/18 09:41:58;;;;;;;3.50;3.20;;;;;;;25.42;61.85;101764.63;5052145;28;20797;-41
2023/07/18 09:44:30;;;;;;;3.23;3.03;;;;;;;25.61;59.29;101754.03;5051494;28;20494;-40
2023/07/18 09:47:03;;;;;;;5.53;3.30;;;;;;;26.13;59.34;101753.75;5051908;28;21083;-41
2023/07/18 09:49:31;;;;;;;5.07;3.80;;;;;;;25.67;58.68;101747.47;5051082;28;20489;-45
2023/07/18 09:52:06;;;;;;;3.67;3.17;;;;;;;25.27;59.39;101754.50;5051349;28;20508;-42
2023/07/18 09:54:34;;;;;;;4.23;3.93;;;;;;;25.07;61.09;101759.09;5051873;28;20438;-40
2023/07/18 09:57:04;;;;;;;4.00;3.27;;;;;;;25.36;59.76;101764.91;5051621;28;20870;-41
2023/07/18 09:59:35;;;;;;;3.83;3.63;;;;;;;25.69;56.67;101748.84;5050276;28;20462;-42
2023/07/18 10:02:06;;;;;;;4.13;3.60;;;;;;;25.79;57.00;101750.75;5051940;28;20450;-43
2023/07/18 10:04:34;;;;;;;4.57;3.93;;;;;;;26.11;57.82;101747.72;5051093;28;20446;-41
2023/07/18 10:07:04;;;;;;;3.80;3.23;;;;;;;26.75;58.26;101745.94;5050338;28;20430;-42
2023/07/18 10:09:33;;;;;;;4.13;3.30;;;;;;;27.03;55.45;101743.66;5050323;28;21251;-41
2023/07/18 10:12:09;;;;;;;3.47;3.17;;;;;;;27.06;51.59;101743.09;5049977;28;20501;-41
2023/07/18 10:14:52;;;;;;;4.13;3.80;;;;;;;27.38;53.09;101757.97;5051278;28;20484;-41
2023/07/18 10:17:28;;;;;;;4.07;3.87;;;;;;;27.17;50.82;101744.69;5050149;28;20434;-41
2023/07/18 10:19:56;;;;;;;4.40;4.00;;;;;;;27.42;50.75;101742.59;5049524;28;20550;-44
2023/07/18 10:22:29;;;;;;;3.60;3.30;;;;;;;27.44;50.78;101734.94;5050297;28;21236;-42
2023/07/18 10:25:04;;;;;;;5.43;3.67;;;;;;;27.60;51.04;101743.84;5050576;28;20439;-41
2023/07/18 10:27:37;;;;;;;3.17;2.97;;;;;;;27.45;47.69;101741.22;5050170;28;20434;-41
2023/07/18 10:30:06;;;;;;;3.47;3.27;;;;;;;27.34;48.94;101736.88;5050074;28;20462;-43
2023/07/18 10:32:35;;;;;;;3.27;3.07;;;;;;;27.06;47.73;101732.94;5050357;28;20442;-41
2023/07/18 10:35:08;;;;;;;5.73;3.13;;;;;;;26.45;47.22;101728.81;5048310;28;20988;-41
2023/07/18 10:37:38;;;;;;;3.43;3.17;;;;;;;26.86;48.82;101731.16;5048708;28;20989;-43
2023/07/18 10:40:08;;;;;;;3.57;3.30;;;;;;;26.98;50.26;101736.28;5048517;28;20498;-43
2023/07/18 10:42:36;;;;;;;4.27;3.90;;;;;;;27.23;49.78;101729.84;5050777;28;20527;-43
2023/07/18 10:45:05;;;;;;;4.20;4.00;;;;;;;26.51;49.07;101725.78;5050600;28;20509;-45
2023/07/18 10:47:36;;;;;;;4.10;3.73;;;;;;;27.06;48.99;101732.94;5051443;28;20431;-42
2023/07/18 10:50:05;;;;;;;3.90;3.70;;;;;;;27.21;48.20;101734.81;5049966;28;20459;-41
2023/07/18 10:52:34;;;;;;;3.50;3.30;;;;;;;27.38;50.33;101729.75;5050998;28;20478;-44
2023/07/18 10:55:07;;;;;;;3.70;3.50;;;;;;;27.39;49.00;101728.63;5050165;28;20485;-45
2023/07/18 10:57:37;;;;;;;3.63;3.53;;;;;;;27.11;47.41;101727.47;5050059;28;20434;-41
2023/07/18 11:00:06;;;;;;;4.00;3.70;;;;;;;25.99;49.82;101723.41;5050182;28;20463;-40
2023/07/18 11:02:39;;;;;;;4.00;3.80;;;;;;;25.68;49.74;101725.38;5049506;28;20559;-42
2023/07/18 11:05:10;;;;;;;3.60;3.40;;;;;;;25.89;49.70;101723.44;5050699;28;20696;-40
2023/07/18 11:07:40;;;;;;;4.10;3.80;;;;;;;25.97;49.08;101714.69;5049217;28;20983;-41
2023/07/18 11:10:10;;;;;;;3.47;3.37;;;;;;;26.16;49.11;101718.53;5050622;28;20485;-41
2023/07/18 11:12:38;;;;;;;3.77;3.57;;;;;;;26.61;47.63;101716.75;5050825;28;20585;-42
2023/07/18 11:15:06;;;;;;;4.03;3.73;;;;;;;26.66;46.61;101723.00;5050896;28;20972;-41
2023/07/18 11:17:34;;;;;;;4.10;3.90;;;;;;;26.36;46.92;101713.00;5050132;28;20502;-42
2023/07/18 11:20:04;;;;;;;3.70;3.50;;;;;;;25.75;48.17;101714.97;5049955;28;20458;-41
2023/07/18 11:22:32;;;;;;;4.13;3.73;;;;;;;25.19;51.73;101714.09;5050378;28;20848;-43